Kalenakliyat 2 — TCBA7 — position and weather

sailwx.info

Track history (hours):
 
Tides and Currents Weather Stations Pressure Air Temp Water Temp Dewpoint Dewpoint Depression Visibility Wind Speed Wind Dir Waves Ship Positions

Kalenakliyat 2

Last reported at 2017-Oct-22 12:01 UTC. Time now 2017-Oct-22 23:15 UTC.
Position N 40°48' E 029°02'.

Length 72 m; draft 4.5 m.

Type: Cargo ship. MMSI: 271002023.

Date/timePositionNaut miles runAvg speedWind from/ knotsBaromVisibWave heightAir tempDewpointWater temp
2017-Oct-22 12:01N 40°48' E 029°02'1 8.7
2017-Oct-22 11:53N 40°49' E 029°04'3 8.5
2017-Oct-22 11:30N 40°50' E 029°08'4 8.5
2017-Oct-22 11:00N 40°51' E 029°13'2 4.1
2017-Oct-22 10:30N 40°51' E 029°16'0 0.0
2017-Oct-22 10:00N 40°51' E 029°16'0 0.0
2017-Oct-22 09:30N 40°51' E 029°16'0 0.0
2017-Oct-22 09:00N 40°51' E 029°16'0 0.0
2017-Oct-22 08:30N 40°51' E 029°16'0 0.0
2017-Oct-22 08:00N 40°51' E 029°16'0 0.0
2017-Oct-22 07:30N 40°51' E 029°16'0 0.0
2017-Oct-22 07:00N 40°51' E 029°16'0 0.0
2017-Oct-22 06:30N 40°51' E 029°16'0 0.0
2017-Oct-22 06:00N 40°51' E 029°16'0 0.0
2017-Oct-22 05:30N 40°51' E 029°16'0 0.2
2017-Oct-22 05:00N 40°51' E 029°16'1 2.4
2017-Oct-22 04:30N 40°51' E 029°15'0 0.1
2017-Oct-22 04:00N 40°51' E 029°15'0 0.0
2017-Oct-22 03:30N 40°51' E 029°15'0 0.0
2017-Oct-22 03:00N 40°51' E 029°15'0 0.0
2017-Oct-22 02:30N 40°51' E 029°15'0 0.1
2017-Oct-22 02:00N 40°51' E 029°15'3 7.0
2017-Oct-22 01:30N 40°51' E 029°10'5 9.4
2017-Oct-22 00:58N 40°50' E 029°03'4 9.6
2017-Oct-22 00:30N 40°48' E 028°58'  
2017-Oct-18 02:54N 39°51' E 026°06'510.2
2017-Oct-18 02:28N 39°56' E 026°07'510.6
2017-Oct-18 01:59N 40°01' E 026°09'141 4.0
2017-Oct-16 14:59N 40°49' E 029°03'4 8.7
2017-Oct-16 14:30N 40°50' E 029°08'6 5.9
2017-Oct-16 13:30N 40°51' E 029°16'0 0.0
2017-Oct-16 13:00N 40°51' E 029°16'0 0.0
2017-Oct-16 12:30N 40°51' E 029°16'0 0.0
2017-Oct-16 12:00N 40°51' E 029°16'0 0.0
2017-Oct-16 11:30N 40°51' E 029°16'0 0.0
2017-Oct-16 11:00N 40°51' E 029°16'0 0.0
2017-Oct-16 10:30N 40°51' E 029°16'0 0.0
2017-Oct-16 10:00N 40°51' E 029°16'0 0.0
2017-Oct-16 09:30N 40°51' E 029°16'0 0.0
2017-Oct-16 09:00N 40°51' E 029°16'0 0.0
2017-Oct-16 08:30N 40°51' E 029°16'3 5.4
2017-Oct-16 08:00N 40°52' E 029°13'0 0.3
2017-Oct-16 07:29N 40°52' E 029°13'0 0.0
2017-Oct-16 07:00N 40°52' E 029°13'0 0.0
2017-Oct-16 06:30N 40°52' E 029°13'0 0.0
2017-Oct-16 06:00N 40°52' E 029°13'0 0.0
2017-Oct-16 05:30N 40°52' E 029°13'0 0.1
2017-Oct-16 05:00N 40°52' E 029°13'0 0.0
2017-Oct-16 04:30N 40°52' E 029°12'0 0.1
2017-Oct-16 04:00N 40°52' E 029°12'0 0.0
2017-Oct-16 03:30N 40°52' E 029°12'0 0.0
2017-Oct-16 03:00N 40°52' E 029°12'0 0.0
2017-Oct-16 02:30N 40°52' E 029°12'0 0.6
2017-Oct-16 02:00N 40°52' E 029°12'5 9.0
2017-Oct-16 01:28N 40°49' E 029°07'4 9.4
2017-Oct-16 01:00N 40°47' E 029°02'  
Track history (hours):
 
Tides and Currents Weather Stations Pressure Air Temp Water Temp Dewpoint Dewpoint Depression Visibility Wind Speed Wind Dir Waves Ship Positions

Kalenakliyat 2

Last reported at 2017-Oct-22 12:01 UTC. Time now 2017-Oct-22 23:15 UTC.
Position N 40°48' E 029°02'.

Length 72 m; draft 4.5 m.

Type: Cargo ship. MMSI: 271002023.

Date/timePositionNaut miles runAvg speedWind from/ knotsBaromVisibWave heightAir tempDewpointWater temp
2017-Oct-22 12:01N 40°48' E 029°02'1 8.7
2017-Oct-22 11:53N 40°49' E 029°04'3 8.5
2017-Oct-22 11:30N 40°50' E 029°08'4 8.5
2017-Oct-22 11:00N 40°51' E 029°13'2 4.1
2017-Oct-22 10:30N 40°51' E 029°16'0 0.0
2017-Oct-22 10:00N 40°51' E 029°16'0 0.0
2017-Oct-22 09:30N 40°51' E 029°16'0 0.0
2017-Oct-22 09:00N 40°51' E 029°16'0 0.0
2017-Oct-22 08:30N 40°51' E 029°16'0 0.0
2017-Oct-22 08:00N 40°51' E 029°16'0 0.0
2017-Oct-22 07:30N 40°51' E 029°16'0 0.0
2017-Oct-22 07:00N 40°51' E 029°16'0 0.0
2017-Oct-22 06:30N 40°51' E 029°16'0 0.0
2017-Oct-22 06:00N 40°51' E 029°16'0 0.0
2017-Oct-22 05:30N 40°51' E 029°16'0 0.2
2017-Oct-22 05:00N 40°51' E 029°16'1 2.4
2017-Oct-22 04:30N 40°51' E 029°15'0 0.1
2017-Oct-22 04:00N 40°51' E 029°15'0 0.0
2017-Oct-22 03:30N 40°51' E 029°15'0 0.0
2017-Oct-22 03:00N 40°51' E 029°15'0 0.0
2017-Oct-22 02:30N 40°51' E 029°15'0 0.1
2017-Oct-22 02:00N 40°51' E 029°15'3 7.0
2017-Oct-22 01:30N 40°51' E 029°10'5 9.4
2017-Oct-22 00:58N 40°50' E 029°03'4 9.6
2017-Oct-22 00:30N 40°48' E 028°58'  
2017-Oct-18 02:54N 39°51' E 026°06'510.2
2017-Oct-18 02:28N 39°56' E 026°07'510.6
2017-Oct-18 01:59N 40°01' E 026°09'141 4.0
2017-Oct-16 14:59N 40°49' E 029°03'4 8.7
2017-Oct-16 14:30N 40°50' E 029°08'6 5.9
2017-Oct-16 13:30N 40°51' E 029°16'0 0.0
2017-Oct-16 13:00N 40°51' E 029°16'0 0.0
2017-Oct-16 12:30N 40°51' E 029°16'0 0.0
2017-Oct-16 12:00N 40°51' E 029°16'0 0.0
2017-Oct-16 11:30N 40°51' E 029°16'0 0.0
2017-Oct-16 11:00N 40°51' E 029°16'0 0.0
2017-Oct-16 10:30N 40°51' E 029°16'0 0.0
2017-Oct-16 10:00N 40°51' E 029°16'0 0.0
2017-Oct-16 09:30N 40°51' E 029°16'0 0.0
2017-Oct-16 09:00N 40°51' E 029°16'0 0.0
2017-Oct-16 08:30N 40°51' E 029°16'3 5.4
2017-Oct-16 08:00N 40°52' E 029°13'0 0.3
2017-Oct-16 07:29N 40°52' E 029°13'0 0.0
2017-Oct-16 07:00N 40°52' E 029°13'0 0.0
2017-Oct-16 06:30N 40°52' E 029°13'0 0.0
2017-Oct-16 06:00N 40°52' E 029°13'0 0.0
2017-Oct-16 05:30N 40°52' E 029°13'0 0.1
2017-Oct-16 05:00N 40°52' E 029°13'0 0.0
2017-Oct-16 04:30N 40°52' E 029°12'0 0.1
2017-Oct-16 04:00N 40°52' E 029°12'0 0.0
2017-Oct-16 03:30N 40°52' E 029°12'0 0.0
2017-Oct-16 03:00N 40°52' E 029°12'0 0.0
2017-Oct-16 02:30N 40°52' E 029°12'0 0.6
2017-Oct-16 02:00N 40°52' E 029°12'5 9.0
2017-Oct-16 01:28N 40°49' E 029°07'4 9.4
2017-Oct-16 01:00N 40°47' E 029°02'  

Dump ship's entire track history